sensor_id;sensor_type;location;lat;lon;timestamp;pressure;altitude;pressure_sealevel;temperature;humidity
58690;BME280;44470;53.206;-6.106;2023-08-31T00:00:10;100813.81;;;20.13;60.91
58690;BME280;44470;53.206;-6.106;2023-08-31T00:02:40;100805.81;;;20.13;60.60
58690;BME280;44470;53.206;-6.106;2023-08-31T00:05:05;100809.38;;;20.14;60.94
58690;BME280;44470;53.206;-6.106;2023-08-31T00:07:31;100797.84;;;20.12;60.98
58690;BME280;44470;53.206;-6.106;2023-08-31T00:09:57;100797.78;;;20.13;60.67
58690;BME280;44470;53.206;-6.106;2023-08-31T00:12:23;100792.44;;;20.13;60.63
58690;BME280;44470;53.206;-6.106;2023-08-31T00:14:49;100791.53;;;20.14;60.75
58690;BME280;44470;53.206;-6.106;2023-08-31T00:17:15;100790.66;;;20.14;60.58
58690;BME280;44470;53.206;-6.106;2023-08-31T00:19:40;100780.94;;;20.10;60.91
58690;BME280;44470;53.206;-6.106;2023-08-31T00:22:06;100775.63;;;20.08;60.76
58690;BME280;44470;53.206;-6.106;2023-08-31T00:24:31;100786.19;;;20.14;60.73
58690;BME280;44470;53.206;-6.106;2023-08-31T00:27:02;100783.50;;;20.14;60.74
58690;BME280;44470;53.206;-6.106;2023-08-31T00:29:28;100787.09;;;20.15;60.92
58690;BME280;44470;53.206;-6.106;2023-08-31T00:31:55;100787.97;;;20.15;60.95
58690;BME280;44470;53.206;-6.106;2023-08-31T00:34:20;100787.97;;;20.15;60.90
58690;BME280;44470;53.206;-6.106;2023-08-31T00:36:45;100779.06;;;20.15;60.66
58690;BME280;44470;53.206;-6.106;2023-08-31T00:39:11;100784.41;;;20.16;60.74
58690;BME280;44470;53.206;-6.106;2023-08-31T00:41:38;100775.47;;;20.16;60.90
58690;BME280;44470;53.206;-6.106;2023-08-31T00:44:05;100770.13;;;20.16;60.78
58690;BME280;44470;53.206;-6.106;2023-08-31T00:46:30;100747.13;;;20.09;61.22
58690;BME280;44470;53.206;-6.106;2023-08-31T00:48:56;100725.16;;;19.94;61.14
58690;BME280;44470;53.206;-6.106;2023-08-31T00:51:23;100761.25;;;20.15;60.93
58690;BME280;44470;53.206;-6.106;2023-08-31T00:53:48;100755.00;;;20.16;60.88
58690;BME280;44470;53.206;-6.106;2023-08-31T00:56:14;100748.75;;;20.16;60.90
58690;BME280;44470;53.206;-6.106;2023-08-31T00:58:39;100752.31;;;20.16;61.02
58690;BME280;44470;53.206;-6.106;2023-08-31T01:04:26;100752.31;;;20.16;61.01
58690;BME280;44470;53.206;-6.106;2023-08-31T01:09:18;100747.84;;;20.17;61.20
58690;BME280;44470;53.206;-6.106;2023-08-31T01:12:04;100752.31;;;20.16;60.88
58690;BME280;44470;53.206;-6.106;2023-08-31T01:14:36;100744.31;;;20.16;60.71
58690;BME280;44470;53.206;-6.106;2023-08-31T01:17:04;100742.50;;;20.17;60.66
58690;BME280;44470;53.206;-6.106;2023-08-31T01:19:49;100739.84;;;20.17;60.92
58690;BME280;44470;53.206;-6.106;2023-08-31T01:22:21;100737.16;;;20.17;60.66
58690;BME280;44470;53.206;-6.106;2023-08-31T01:24:50;100744.31;;;20.16;60.50
58690;BME280;44470;53.206;-6.106;2023-08-31T01:27:16;100738.91;;;20.18;60.65
58690;BME280;44470;53.206;-6.106;2023-08-31T01:29:41;100738.06;;;20.17;60.94
58690;BME280;44470;53.206;-6.106;2023-08-31T01:32:06;100743.41;;;20.16;60.94
58690;BME280;44470;53.206;-6.106;2023-08-31T01:34:32;100737.16;;;20.17;60.73
58690;BME280;44470;53.206;-6.106;2023-08-31T01:36:58;100730.94;;;20.16;60.63
58690;BME280;44470;53.206;-6.106;2023-08-31T01:41:52;100736.28;;;20.16;60.78
58690;BME280;44470;53.206;-6.106;2023-08-31T01:44:21;100733.63;;;20.16;60.79
58690;BME280;44470;53.206;-6.106;2023-08-31T01:46:46;100730.94;;;20.16;61.03
58690;BME280;44470;53.206;-6.106;2023-08-31T01:49:13;100730.94;;;20.16;60.52
58690;BME280;44470;53.206;-6.106;2023-08-31T01:51:40;100709.75;;;20.07;60.85
58690;BME280;44470;53.206;-6.106;2023-08-31T01:54:05;100725.59;;;20.16;60.47
58690;BME280;44470;53.206;-6.106;2023-08-31T01:56:31;100716.78;;;20.11;60.92
58690;BME280;44470;53.206;-6.106;2023-08-31T01:58:57;100714.03;;;20.16;60.43
58690;BME280;44470;53.206;-6.106;2023-08-31T02:01:23;100710.44;;;20.17;60.70
58690;BME280;44470;53.206;-6.106;2023-08-31T02:03:49;100704.22;;;20.16;60.86
58690;BME280;44470;53.206;-6.106;2023-08-31T02:06:14;100713.09;;;20.18;60.68
58690;BME280;44470;53.206;-6.106;2023-08-31T02:08:39;100705.09;;;20.17;60.57
58690;BME280;44470;53.206;-6.106;2023-08-31T02:11:05;100705.06;;;20.18;60.55
58690;BME280;44470;53.206;-6.106;2023-08-31T02:13:30;100706.00;;;20.17;60.55
58690;BME280;44470;53.206;-6.106;2023-08-31T02:15:55;100711.34;;;20.17;60.69
58690;BME280;44470;53.206;-6.106;2023-08-31T02:18:21;100702.41;;;20.17;60.76
58690;BME280;44470;53.206;-6.106;2023-08-31T02:20:46;100695.31;;;20.17;60.43
58690;BME280;44470;53.206;-6.106;2023-08-31T02:23:13;100691.72;;;20.17;60.66
58690;BME280;44470;53.206;-6.106;2023-08-31T02:25:38;100700.66;;;20.17;60.62
58690;BME280;44470;53.206;-6.106;2023-08-31T02:28:04;100699.75;;;20.17;60.81
58690;BME280;44470;53.206;-6.106;2023-08-31T02:30:29;100695.31;;;20.17;60.81
58690;BME280;44470;53.206;-6.106;2023-08-31T02:32:56;100692.63;;;20.17;60.42
58690;BME280;44470;53.206;-6.106;2023-08-31T02:35:21;100689.06;;;20.17;60.76
58690;BME280;44470;53.206;-6.106;2023-08-31T02:37:47;100693.50;;;20.18;60.56
58690;BME280;44470;53.206;-6.106;2023-08-31T02:40:12;100695.31;;;20.17;60.80
58690;BME280;44470;53.206;-6.106;2023-08-31T02:42:37;100681.03;;;20.17;60.54
58690;BME280;44470;53.206;-6.106;2023-08-31T02:45:03;100685.47;;;20.18;60.50
58690;BME280;44470;53.206;-6.106;2023-08-31T02:47:29;100673.94;;;20.16;60.62
58690;BME280;44470;53.206;-6.106;2023-08-31T02:49:54;100673.94;;;20.17;60.58
58690;BME280;44470;53.206;-6.106;2023-08-31T02:52:20;100674.78;;;20.18;60.54
58690;BME280;44470;53.206;-6.106;2023-08-31T02:54:45;100674.78;;;20.18;60.47
58690;BME280;44470;53.206;-6.106;2023-08-31T02:57:11;100668.56;;;20.17;60.81
58690;BME280;44470;53.206;-6.106;2023-08-31T02:59:36;100668.56;;;20.17;60.44
58690;BME280;44470;53.206;-6.106;2023-08-31T03:02:02;100668.56;;;20.17;60.79
58690;BME280;44470;53.206;-6.106;2023-08-31T03:04:28;100671.25;;;20.17;60.85
58690;BME280;44470;53.206;-6.106;2023-08-31T03:06:54;100665.91;;;20.17;60.62
58690;BME280;44470;53.206;-6.106;2023-08-31T03:09:19;100660.56;;;20.17;60.58
58690;BME280;44470;53.206;-6.106;2023-08-31T03:11:48;100648.13;;;20.16;60.65
58690;BME280;44470;53.206;-6.106;2023-08-31T03:14:13;100645.44;;;20.16;60.69
58690;BME280;44470;53.206;-6.106;2023-08-31T03:16:40;100641.84;;;20.17;60.76
58690;BME280;44470;53.206;-6.106;2023-08-31T03:19:05;100625.81;;;20.17;60.94
58690;BME280;44470;53.206;-6.106;2023-08-31T03:21:31;100623.16;;;20.17;60.56
58690;BME280;44470;53.206;-6.106;2023-08-31T03:23:56;100602.69;;;20.16;61.04
58690;BME280;44470;53.206;-6.106;2023-08-31T03:26:21;100608.03;;;20.16;60.77
58690;BME280;44470;53.206;-6.106;2023-08-31T03:28:47;100604.44;;;20.17;60.95
58690;BME280;44470;53.206;-6.106;2023-08-31T03:31:13;100609.78;;;20.17;60.90
58690;BME280;44470;53.206;-6.106;2023-08-31T03:33:40;100625.81;;;20.17;61.06
58690;BME280;44470;53.206;-6.106;2023-08-31T03:36:05;100628.50;;;20.17;61.05
58690;BME280;44470;53.206;-6.106;2023-08-31T03:38:32;100622.25;;;20.17;60.76
58690;BME280;44470;53.206;-6.106;2023-08-31T03:40:59;100600.03;;;20.16;60.63
58690;BME280;44470;53.206;-6.106;2023-08-31T03:43:24;100608.03;;;20.16;60.64
58690;BME280;44470;53.206;-6.106;2023-08-31T03:45:54;100608.03;;;20.16;61.13
58690;BME280;44470;53.206;-6.106;2023-08-31T03:48:21;100619.59;;;20.17;60.96
58690;BME280;44470;53.206;-6.106;2023-08-31T03:50:53;100629.34;;;20.18;61.00
58690;BME280;44470;53.206;-6.106;2023-08-31T03:53:19;100628.50;;;20.17;60.79
58690;BME280;44470;53.206;-6.106;2023-08-31T03:55:44;100625.81;;;20.17;61.01
58690;BME280;44470;53.206;-6.106;2023-08-31T03:58:13;100625.81;;;20.17;60.69
58690;BME280;44470;53.206;-6.106;2023-08-31T04:00:39;100631.16;;;20.17;60.71
58690;BME280;44470;53.206;-6.106;2023-08-31T04:03:05;100628.50;;;20.17;60.86
58690;BME280;44470;53.206;-6.106;2023-08-31T04:05:33;100624.94;;;20.17;61.13
58690;BME280;44470;53.206;-6.106;2023-08-31T04:07:59;100637.38;;;20.18;60.75
58690;BME280;44470;53.206;-6.106;2023-08-31T04:10:25;100627.59;;;20.18;60.99
58690;BME280;44470;53.206;-6.106;2023-08-31T04:12:51;100623.16;;;20.17;60.84
58690;BME280;44470;53.206;-6.106;2023-08-31T04:15:17;100608.88;;;20.18;61.27
58690;BME280;44470;53.206;-6.106;2023-08-31T04:17:42;100596.53;;;20.11;60.89
58690;BME280;44470;53.206;-6.106;2023-08-31T04:20:08;100603.56;;;20.17;60.90
58690;BME280;44470;53.206;-6.106;2023-08-31T04:22:33;100606.22;;;20.17;61.02
58690;BME280;44470;53.206;-6.106;2023-08-31T04:24:59;100601.78;;;20.16;60.85
58690;BME280;44470;53.206;-6.106;2023-08-31T04:27:24;100611.56;;;20.17;61.30
58690;BME280;44470;53.206;-6.106;2023-08-31T04:29:50;100617.81;;;20.17;60.93
58690;BME280;44470;53.206;-6.106;2023-08-31T04:32:15;100617.81;;;20.17;61.31
58690;BME280;44470;53.206;-6.106;2023-08-31T04:34:40;100619.63;;;20.15;60.90
58690;BME280;44470;53.206;-6.106;2023-08-31T04:37:06;100620.47;;;20.17;60.95
58690;BME280;44470;53.206;-6.106;2023-08-31T04:39:31;100606.22;;;20.17;61.00
58690;BME280;44470;53.206;-6.106;2023-08-31T04:41:56;100604.44;;;20.17;61.16
58690;BME280;44470;53.206;-6.106;2023-08-31T04:44:22;100608.03;;;20.16;61.23
58690;BME280;44470;53.206;-6.106;2023-08-31T04:46:47;100611.56;;;20.18;61.06
58690;BME280;44470;53.206;-6.106;2023-08-31T04:49:13;100616.06;;;20.16;61.04
58690;BME280;44470;53.206;-6.106;2023-08-31T04:51:38;100608.03;;;20.16;61.32
58690;BME280;44470;53.206;-6.106;2023-08-31T04:54:04;100608.03;;;20.16;61.25
58690;BME280;44470;53.206;-6.106;2023-08-31T04:56:31;100609.78;;;20.17;61.18
58690;BME280;44470;53.206;-6.106;2023-08-31T04:58:57;100609.78;;;20.17;61.21
58690;BME280;44470;53.206;-6.106;2023-08-31T05:01:22;100622.25;;;20.17;61.00
58690;BME280;44470;53.206;-6.106;2023-08-31T05:03:48;100613.38;;;20.16;61.08
58690;BME280;44470;53.206;-6.106;2023-08-31T05:06:13;100617.81;;;20.17;61.35
58690;BME280;44470;53.206;-6.106;2023-08-31T05:08:39;100600.88;;;20.17;61.16
58690;BME280;44470;53.206;-6.106;2023-08-31T05:11:04;100605.31;;;20.18;61.22
58690;BME280;44470;53.206;-6.106;2023-08-31T05:13:29;100601.78;;;20.16;61.02
58690;BME280;44470;53.206;-6.106;2023-08-31T05:15:55;100602.69;;;20.16;61.33
58690;BME280;44470;53.206;-6.106;2023-08-31T05:18:20;100593.75;;;20.17;61.00
58690;BME280;44470;53.206;-6.106;2023-08-31T05:20:45;100599.97;;;20.18;61.01
58690;BME280;44470;53.206;-6.106;2023-08-31T05:23:13;100592.00;;;20.16;61.02
58690;BME280;44470;53.206;-6.106;2023-08-31T05:25:42;100603.56;;;20.17;60.94
58690;BME280;44470;53.206;-6.106;2023-08-31T05:28:08;100600.88;;;20.17;61.32
58690;BME280;44470;53.206;-6.106;2023-08-31T05:30:33;100597.34;;;20.16;61.13
58690;BME280;44470;53.206;-6.106;2023-08-31T05:33:00;100603.56;;;20.17;61.20
58690;BME280;44470;53.206;-6.106;2023-08-31T05:35:25;100598.22;;;20.17;61.22
58690;BME280;44470;53.206;-6.106;2023-08-31T05:37:50;100588.41;;;20.17;61.13
58690;BME280;44470;53.206;-6.106;2023-08-31T05:40:16;100579.50;;;20.17;61.13
58690;BME280;44470;53.206;-6.106;2023-08-31T05:42:42;100578.66;;;20.16;61.17
58690;BME280;44470;53.206;-6.106;2023-08-31T05:45:07;100586.66;;;20.16;61.02
58690;BME280;44470;53.206;-6.106;2023-08-31T05:47:34;100592.00;;;20.16;61.28
58690;BME280;44470;53.206;-6.106;2023-08-31T05:50:00;100602.69;;;20.16;61.15
58690;BME280;44470;53.206;-6.106;2023-08-31T05:52:25;100601.78;;;20.17;61.20
58690;BME280;44470;53.206;-6.106;2023-08-31T05:54:51;100594.69;;;20.16;61.11
58690;BME280;44470;53.206;-6.106;2023-08-31T05:57:18;100592.00;;;20.16;61.56
58690;BME280;44470;53.206;-6.106;2023-08-31T05:59:43;100592.00;;;20.16;61.33
58690;BME280;44470;53.206;-6.106;2023-08-31T06:02:09;100584.84;;;20.17;61.52
58690;BME280;44470;53.206;-6.106;2023-08-31T06:04:34;100593.75;;;20.17;61.20
58690;BME280;44470;53.206;-6.106;2023-08-31T06:06:59;100593.75;;;20.17;61.66
58690;BME280;44470;53.206;-6.106;2023-08-31T06:09:25;100592.00;;;20.16;61.39
58690;BME280;44470;53.206;-6.106;2023-08-31T06:11:50;100600.88;;;20.17;61.57
58690;BME280;44470;53.206;-6.106;2023-08-31T06:14:15;100592.00;;;20.16;61.13
58690;BME280;44470;53.206;-6.106;2023-08-31T06:16:41;100602.69;;;20.16;61.43
58690;BME280;44470;53.206;-6.106;2023-08-31T06:19:06;100599.09;;;20.17;61.22
58690;BME280;44470;53.206;-6.106;2023-08-31T06:21:32;100592.00;;;20.16;61.25
58690;BME280;44470;53.206;-6.106;2023-08-31T06:23:57;100593.75;;;20.17;61.37
58690;BME280;44470;53.206;-6.106;2023-08-31T06:26:22;100592.91;;;20.15;61.44
58690;BME280;44470;53.206;-6.106;2023-08-31T06:28:48;100593.75;;;20.17;61.14
58690;BME280;44470;53.206;-6.106;2023-08-31T06:31:13;100586.66;;;20.16;61.41
58690;BME280;44470;53.206;-6.106;2023-08-31T06:33:39;100593.75;;;20.17;61.47
58690;BME280;44470;53.206;-6.106;2023-08-31T06:36:04;100595.53;;;20.18;61.43
58690;BME280;44470;53.206;-6.106;2023-08-31T06:38:30;100599.09;;;20.17;61.21
58690;BME280;44470;53.206;-6.106;2023-08-31T06:40:55;100591.09;;;20.17;61.30
58690;BME280;44470;53.206;-6.106;2023-08-31T06:43:24;100588.41;;;20.17;61.77
58690;BME280;44470;53.206;-6.106;2023-08-31T06:45:52;100591.09;;;20.17;61.28
58690;BME280;44470;53.206;-6.106;2023-08-31T06:48:17;100592.00;;;20.16;61.29
58690;BME280;44470;53.206;-6.106;2023-08-31T06:50:42;100586.66;;;20.16;61.50
58690;BME280;44470;53.206;-6.106;2023-08-31T06:53:08;100586.66;;;20.16;61.16
58690;BME280;44470;53.206;-6.106;2023-08-31T06:55:33;100590.19;;;20.17;61.70
58690;BME280;44470;53.206;-6.106;2023-08-31T06:57:59;100592.88;;;20.17;61.50
58690;BME280;44470;53.206;-6.106;2023-08-31T07:00:24;100591.09;;;20.17;61.58
58690;BME280;44470;53.206;-6.106;2023-08-31T07:02:50;100589.34;;;20.16;61.53
58690;BME280;44470;53.206;-6.106;2023-08-31T07:05:15;100586.66;;;20.16;61.71
58690;BME280;44470;53.206;-6.106;2023-08-31T07:07:41;100575.97;;;20.16;61.32
58690;BME280;44470;53.206;-6.106;2023-08-31T07:10:06;100568.81;;;20.17;61.42
58690;BME280;44470;53.206;-6.106;2023-08-31T07:12:32;100570.63;;;20.16;61.65
58690;BME280;44470;53.206;-6.106;2023-08-31T07:14:57;100573.31;;;20.15;61.60
58690;BME280;44470;53.206;-6.106;2023-08-31T07:17:23;100571.50;;;20.17;61.81
58690;BME280;44470;53.206;-6.106;2023-08-31T07:19:48;100567.97;;;20.16;61.82
58690;BME280;44470;53.206;-6.106;2023-08-31T07:22:13;100555.56;;;20.12;61.49
58690;BME280;44470;53.206;-6.106;2023-08-31T07:24:39;100554.59;;;20.16;61.81
58690;BME280;44470;53.206;-6.106;2023-08-31T07:27:04;100549.25;;;20.16;61.62
58690;BME280;44470;53.206;-6.106;2023-08-31T07:29:30;100548.34;;;20.17;61.79
58690;BME280;44470;53.206;-6.106;2023-08-31T07:31:55;100555.47;;;20.17;61.90
58690;BME280;44470;53.206;-6.106;2023-08-31T07:34:21;100554.59;;;20.16;61.81
58690;BME280;44470;53.206;-6.106;2023-08-31T07:36:46;100544.03;;;20.10;61.99
58690;BME280;44470;53.206;-6.106;2023-08-31T07:39:12;100559.94;;;20.16;62.11
58690;BME280;44470;53.206;-6.106;2023-08-31T07:41:37;100561.69;;;20.17;62.06
58690;BME280;44470;53.206;-6.106;2023-08-31T07:44:03;100559.94;;;20.16;61.91
58690;BME280;44470;53.206;-6.106;2023-08-31T07:46:28;100567.97;;;20.16;61.93
58690;BME280;44470;53.206;-6.106;2023-08-31T07:48:53;100577.72;;;20.17;62.00
58690;BME280;44470;53.206;-6.106;2023-08-31T07:51:19;100570.63;;;20.16;62.33
58690;BME280;44470;53.206;-6.106;2023-08-31T07:53:48;100568.81;;;20.17;61.99
58690;BME280;44470;53.206;-6.106;2023-08-31T07:56:14;100572.38;;;20.17;61.92
58690;BME280;44470;53.206;-6.106;2023-08-31T07:58:39;100569.72;;;20.17;62.30
58690;BME280;44470;53.206;-6.106;2023-08-31T08:01:05;100577.72;;;20.17;62.11
58690;BME280;44470;53.206;-6.106;2023-08-31T08:03:30;100565.44;;;20.09;62.21
58690;BME280;44470;53.206;-6.106;2023-08-31T08:05:55;100580.41;;;20.17;62.29
58690;BME280;44470;53.206;-6.106;2023-08-31T08:08:21;100576.84;;;20.17;62.14
58690;BME280;44470;53.206;-6.106;2023-08-31T08:10:46;100579.50;;;20.17;62.32
58690;BME280;44470;53.206;-6.106;2023-08-31T08:13:12;100580.41;;;20.17;62.07
58690;BME280;44470;53.206;-6.106;2023-08-31T08:15:37;100587.53;;;20.17;62.03
58690;BME280;44470;53.206;-6.106;2023-08-31T08:18:03;100595.53;;;20.18;62.14
58690;BME280;44470;53.206;-6.106;2023-08-31T08:20:29;100592.88;;;20.17;62.19
58690;BME280;44470;53.206;-6.106;2023-08-31T08:22:54;100593.75;;;20.17;62.32
58690;BME280;44470;53.206;-6.106;2023-08-31T08:25:21;100597.28;;;20.18;62.12
58690;BME280;44470;53.206;-6.106;2023-08-31T08:27:47;100605.31;;;20.18;62.19
58690;BME280;44470;53.206;-6.106;2023-08-31T08:30:12;100603.53;;;20.18;62.46
58690;BME280;44470;53.206;-6.106;2023-08-31T08:32:38;100595.53;;;20.18;61.97
58690;BME280;44470;53.206;-6.106;2023-08-31T08:35:04;100597.28;;;20.18;61.90
58690;BME280;44470;53.206;-6.106;2023-08-31T08:37:29;100602.63;;;20.20;62.15
58690;BME280;44470;53.206;-6.106;2023-08-31T08:39:54;100595.53;;;20.18;61.96
58690;BME280;44470;53.206;-6.106;2023-08-31T08:42:20;100598.19;;;20.18;62.41
58690;BME280;44470;53.206;-6.106;2023-08-31T08:44:48;100595.53;;;20.18;62.11
58690;BME280;44470;53.206;-6.106;2023-08-31T08:47:15;100590.16;;;20.18;62.06
58690;BME280;44470;53.206;-6.106;2023-08-31T08:49:41;100595.53;;;20.18;61.86
58690;BME280;44470;53.206;-6.106;2023-08-31T08:52:07;100595.53;;;20.18;62.09
58690;BME280;44470;53.206;-6.106;2023-08-31T08:54:33;100589.25;;;20.20;62.37
58690;BME280;44470;53.206;-6.106;2023-08-31T08:56:59;100591.03;;;20.19;62.58
58690;BME280;44470;53.206;-6.106;2023-08-31T08:59:26;100583.94;;;20.18;62.59
58690;BME280;44470;53.206;-6.106;2023-08-31T09:01:52;100582.16;;;20.18;62.42
58690;BME280;44470;53.206;-6.106;2023-08-31T09:04:18;100578.66;;;20.16;62.50
58690;BME280;44470;53.206;-6.106;2023-08-31T09:06:43;100579.47;;;20.18;62.17
58690;BME280;44470;53.206;-6.106;2023-08-31T09:09:09;100591.94;;;20.20;62.64
58690;BME280;44470;53.206;-6.106;2023-08-31T09:11:35;100591.03;;;20.19;62.49
58690;BME280;44470;53.206;-6.106;2023-08-31T09:14:13;100588.38;;;20.19;62.10
58690;BME280;44470;53.206;-6.106;2023-08-31T09:16:38;100593.69;;;20.21;62.42
58690;BME280;44470;53.206;-6.106;2023-08-31T09:19:06;100602.63;;;20.20;62.26
58690;BME280;44470;53.206;-6.106;2023-08-31T09:21:42;100599.94;;;20.20;62.27
58690;BME280;44470;53.206;-6.106;2023-08-31T09:24:07;100600.84;;;20.18;62.31
58690;BME280;44470;53.206;-6.106;2023-08-31T09:26:43;100597.28;;;20.20;62.19
58690;BME280;44470;53.206;-6.106;2023-08-31T09:29:08;100593.69;;;20.21;62.30
58690;BME280;44470;53.206;-6.106;2023-08-31T09:31:34;100583.91;;;20.20;62.46
58690;BME280;44470;53.206;-6.106;2023-08-31T09:33:59;100581.25;;;20.20;62.34
58690;BME280;44470;53.206;-6.106;2023-08-31T09:36:26;100581.25;;;20.20;62.54
58690;BME280;44470;53.206;-6.106;2023-08-31T09:38:51;100575.00;;;20.19;62.41
58690;BME280;44470;53.206;-6.106;2023-08-31T09:41:16;100574.97;;;20.21;62.60
58690;BME280;44470;53.206;-6.106;2023-08-31T09:43:42;100566.97;;;20.21;62.17
58690;BME280;44470;53.206;-6.106;2023-08-31T09:46:08;100574.09;;;20.20;62.22
58690;BME280;44470;53.206;-6.106;2023-08-31T09:48:34;100570.56;;;20.20;62.34
58690;BME280;44470;53.206;-6.106;2023-08-31T09:51:03;100566.97;;;20.21;62.78
58690;BME280;44470;53.206;-6.106;2023-08-31T09:53:29;100566.97;;;20.21;62.72
58690;BME280;44470;53.206;-6.106;2023-08-31T09:55:56;100559.81;;;20.21;62.55
58690;BME280;44470;53.206;-6.106;2023-08-31T09:58:27;100563.38;;;20.22;62.99
58690;BME280;44470;53.206;-6.106;2023-08-31T10:00:53;100563.38;;;20.22;62.92
58690;BME280;44470;53.206;-6.106;2023-08-31T10:03:19;100563.38;;;20.22;62.80
58690;BME280;44470;53.206;-6.106;2023-08-31T10:05:46;100560.72;;;20.22;62.80
58690;BME280;44470;53.206;-6.106;2023-08-31T10:08:12;100559.81;;;20.21;62.75
58690;BME280;44470;53.206;-6.106;2023-08-31T10:10:37;100559.78;;;20.23;62.60
58690;BME280;44470;53.206;-6.106;2023-08-31T10:13:05;100556.22;;;20.22;62.71
58690;BME280;44470;53.206;-6.106;2023-08-31T10:15:31;100554.63;;;20.15;62.80
58690;BME280;44470;53.206;-6.106;2023-08-31T10:18:01;100551.13;;;20.11;62.80
58690;BME280;44470;53.206;-6.106;2023-08-31T10:20:28;100551.06;;;20.14;62.95
58690;BME280;44470;53.206;-6.106;2023-08-31T10:23:06;100554.59;;;20.16;63.12
58690;BME280;44470;53.206;-6.106;2023-08-31T10:28:22;100549.19;;;20.20;62.85
58690;BME280;44470;53.206;-6.106;2023-08-31T10:31:07;100546.50;;;20.20;63.23
58690;BME280;44470;53.206;-6.106;2023-08-31T10:33:33;100539.34;;;20.20;63.16
58690;BME280;44470;53.206;-6.106;2023-08-31T10:35:59;100543.78;;;20.21;63.21
58690;BME280;44470;53.206;-6.106;2023-08-31T10:38:28;100543.75;;;20.23;63.20
58690;BME280;44470;53.206;-6.106;2023-08-31T10:41:02;100550.84;;;20.24;63.47
58690;BME280;44470;53.206;-6.106;2023-08-31T10:43:42;100546.38;;;20.24;63.50
58690;BME280;44470;53.206;-6.106;2023-08-31T10:48:49;100551.72;;;20.24;63.66
58690;BME280;44470;53.206;-6.106;2023-08-31T10:51:17;100551.72;;;20.24;63.32
58690;BME280;44470;53.206;-6.106;2023-08-31T10:53:46;100552.63;;;20.25;63.51
58690;BME280;44470;53.206;-6.106;2023-08-31T10:56:11;100549.94;;;20.25;63.59
58690;BME280;44470;53.206;-6.106;2023-08-31T10:58:37;100557.03;;;20.26;63.82
58690;BME280;44470;53.206;-6.106;2023-08-31T11:01:03;100552.56;;;20.26;63.76
58690;BME280;44470;53.206;-6.106;2023-08-31T11:03:31;100548.13;;;20.25;63.74
58690;BME280;44470;53.206;-6.106;2023-08-31T11:05:57;100543.69;;;20.26;63.37
58690;BME280;44470;53.206;-6.106;2023-08-31T11:08:25;100537.44;;;20.25;63.59
58690;BME280;44470;53.206;-6.106;2023-08-31T11:10:52;100543.69;;;20.26;63.45
58690;BME280;44470;53.206;-6.106;2023-08-31T11:13:20;100544.53;;;20.26;63.60
58690;BME280;44470;53.206;-6.106;2023-08-31T11:15:47;100542.78;;;20.25;63.90
58690;BME280;44470;53.206;-6.106;2023-08-31T11:18:13;100549.88;;;20.26;63.45
58690;BME280;44470;53.206;-6.106;2023-08-31T11:20:43;100545.44;;;20.27;63.86
58690;BME280;44470;53.206;-6.106;2023-08-31T11:23:08;100539.19;;;20.26;63.48
58690;BME280;44470;53.206;-6.106;2023-08-31T11:25:33;100543.69;;;20.26;63.51
58690;BME280;44470;53.206;-6.106;2023-08-31T11:28:00;100546.34;;;20.26;63.78
58690;BME280;44470;53.206;-6.106;2023-08-31T11:30:26;100545.44;;;20.27;63.75
58690;BME280;44470;53.206;-6.106;2023-08-31T11:32:52;100548.09;;;20.27;63.69
58690;BME280;44470;53.206;-6.106;2023-08-31T11:35:18;100546.34;;;20.26;63.76
58690;BME280;44470;53.206;-6.106;2023-08-31T11:37:44;100546.34;;;20.26;63.59
58690;BME280;44470;53.206;-6.106;2023-08-31T11:40:10;100548.13;;;20.25;63.63
58690;BME280;44470;53.206;-6.106;2023-08-31T11:42:36;100542.00;;;20.22;64.01
58690;BME280;44470;53.206;-6.106;2023-08-31T11:45:02;100556.13;;;20.27;63.77
58690;BME280;44470;53.206;-6.106;2023-08-31T11:47:30;100562.38;;;20.26;63.90
58690;BME280;44470;53.206;-6.106;2023-08-31T11:49:56;100565.91;;;20.26;63.57
58690;BME280;44470;53.206;-6.106;2023-08-31T11:52:21;100556.16;;;20.25;63.82
58690;BME280;44470;53.206;-6.106;2023-08-31T11:54:47;100559.72;;;20.26;63.71
58690;BME280;44470;53.206;-6.106;2023-08-31T11:57:16;100557.91;;;20.26;63.72
58690;BME280;44470;53.206;-6.106;2023-08-31T11:59:42;100557.03;;;20.26;63.88
58690;BME280;44470;53.206;-6.106;2023-08-31T12:02:08;100549.03;;;20.26;63.69
58690;BME280;44470;53.206;-6.106;2023-08-31T12:04:43;100549.03;;;20.26;63.73
58690;BME280;44470;53.206;-6.106;2023-08-31T12:07:09;100554.38;;;20.26;63.53
58690;BME280;44470;53.206;-6.106;2023-08-31T12:09:34;100549.88;;;20.26;63.76
58690;BME280;44470;53.206;-6.106;2023-08-31T12:12:00;100549.88;;;20.26;63.51
58690;BME280;44470;53.206;-6.106;2023-08-31T12:14:26;100554.38;;;20.26;63.41
58690;BME280;44470;53.206;-6.106;2023-08-31T12:16:53;100554.38;;;20.26;63.83
58690;BME280;44470;53.206;-6.106;2023-08-31T12:19:26;100558.78;;;20.27;63.86
58690;BME280;44470;53.206;-6.106;2023-08-31T12:21:51;100557.03;;;20.26;63.79
58690;BME280;44470;53.206;-6.106;2023-08-31T12:24:17;100554.38;;;20.26;63.83
58690;BME280;44470;53.206;-6.106;2023-08-31T12:26:44;100549.88;;;20.26;63.81
58690;BME280;44470;53.206;-6.106;2023-08-31T12:29:09;100551.66;;;20.27;63.79
58690;BME280;44470;53.206;-6.106;2023-08-31T12:31:36;100551.69;;;20.26;63.69
58690;BME280;44470;53.206;-6.106;2023-08-31T12:34:01;100547.22;;;20.26;63.38
58690;BME280;44470;53.206;-6.106;2023-08-31T12:36:30;100547.22;;;20.26;63.82
58690;BME280;44470;53.206;-6.106;2023-08-31T12:38:55;100548.09;;;20.27;63.97
58690;BME280;44470;53.206;-6.106;2023-08-31T12:41:20;100548.09;;;20.27;63.81
58690;BME280;44470;53.206;-6.106;2023-08-31T12:43:46;100549.88;;;20.26;63.52
58690;BME280;44470;53.206;-6.106;2023-08-31T12:46:11;100550.78;;;20.27;63.53
58690;BME280;44470;53.206;-6.106;2023-08-31T12:48:38;100543.69;;;20.26;63.96